SWA1776 KMIA-KMCO
Flight info
| Callsign | SWA1776 |
|---|---|
| Flight time | 0h 39m |
| Altitude | 19000 |
| Route | FLMGO2 WAPOM RIDES2 |
| Aircraft | B738/M-SDE2E3FGHIRWXY/LB1 |
Departure
| Time | 2026-04-24 23:58 |
|---|---|
| Airport | Miami International Airport (KMIA) |
Arrival
| Time | 2026-04-25 00:38 |
|---|---|
| Airport | Orlando International Airport (KMCO) |
| Time | Latitude | Longitude | Altitude | Speed | Heading |
|---|---|---|---|---|---|
| 2026-04-24 23:29 | 25.79112 | -80.27976 | 11 ft | 0 kts | 104° |
| 2026-04-24 23:42 | 25.79112 | -80.27977 | 11 ft | 0 kts | 104° |
| 2026-04-24 23:42 | 25.79115 | -80.27993 | 11 ft | 2 kts | 109° |
| 2026-04-24 23:42 | 25.79123 | -80.28007 | 11 ft | 2 kts | 132° |
| 2026-04-24 23:43 | 25.79135 | -80.28017 | 11 ft | 2 kts | 151° |
| 2026-04-24 23:43 | 25.79148 | -80.28024 | 11 ft | 2 kts | 168° |
| 2026-04-24 23:43 | 25.79163 | -80.28024 | 11 ft | 2 kts | 187° |
| 2026-04-24 23:43 | 25.79175 | -80.28021 | 11 ft | 0 kts | 203° |
| 2026-04-24 23:44 | 25.79181 | -80.28017 | 11 ft | 1 kts | 206° |
| 2026-04-24 23:44 | 25.79182 | -80.28017 | 11 ft | 0 kts | 206° |
| 2026-04-24 23:48 | 25.79178 | -80.28020 | 11 ft | 3 kts | 206° |
| 2026-04-24 23:49 | 25.79125 | -80.28047 | 11 ft | 12 kts | 204° |
| 2026-04-24 23:49 | 25.79053 | -80.28091 | 11 ft | 11 kts | 235° |
| 2026-04-24 23:49 | 25.79014 | -80.28166 | 11 ft | 12 kts | 242° |
| 2026-04-24 23:49 | 25.79036 | -80.28266 | 11 ft | 15 kts | 298° |
| 2026-04-24 23:50 | 25.79095 | -80.28383 | 11 ft | 18 kts | 300° |
| 2026-04-24 23:50 | 25.79169 | -80.28495 | 11 ft | 17 kts | 300° |
| 2026-04-24 23:50 | 25.79227 | -80.28610 | 12 ft | 18 kts | 299° |
| 2026-04-24 23:50 | 25.79296 | -80.28745 | 13 ft | 21 kts | 300° |
| 2026-04-24 23:51 | 25.79367 | -80.28883 | 13 ft | 20 kts | 300° |
| 2026-04-24 23:51 | 25.79436 | -80.29018 | 11 ft | 20 kts | 299° |
| 2026-04-24 23:51 | 25.79504 | -80.29151 | 11 ft | 18 kts | 300° |
| 2026-04-24 23:51 | 25.79566 | -80.29273 | 11 ft | 17 kts | 299° |
| 2026-04-24 23:52 | 25.79624 | -80.29386 | 11 ft | 16 kts | 300° |
| 2026-04-24 23:52 | 25.79682 | -80.29498 | 11 ft | 18 kts | 300° |
| 2026-04-24 23:52 | 25.79745 | -80.29622 | 11 ft | 17 kts | 299° |
| 2026-04-24 23:52 | 25.79803 | -80.29737 | 11 ft | 16 kts | 299° |
| 2026-04-24 23:53 | 25.79857 | -80.29843 | 11 ft | 15 kts | 300° |
| 2026-04-24 23:53 | 25.79905 | -80.29935 | 11 ft | 10 kts | 300° |
| 2026-04-24 23:53 | 25.79913 | -80.29951 | 11 ft | 0 kts | 300° |
| 2026-04-24 23:56 | 25.79916 | -80.29956 | 11 ft | 2 kts | 299° |
| 2026-04-24 23:56 | 25.79942 | -80.30009 | 11 ft | 13 kts | 297° |
| 2026-04-24 23:56 | 25.80002 | -80.30111 | 11 ft | 16 kts | 327° |
| 2026-04-24 23:57 | 25.80073 | -80.30100 | 11 ft | 8 kts | 76° |
| 2026-04-24 23:57 | 25.80074 | -80.30086 | 11 ft | 0 kts | 84° |
| 2026-04-24 23:57 | 25.80082 | -80.29973 | 11 ft | 47 kts | 88° |
| 2026-04-24 23:57 | 25.80104 | -80.29311 | 12 ft | 121 kts | 88° |
| 2026-04-24 23:58 | 25.80155 | -80.28149 | 144 ft | 170 kts | 87° |
| 2026-04-24 23:58 | 25.80235 | -80.26889 | 974 ft | 169 kts | 86° |
| 2026-04-24 23:58 | 25.80322 | -80.25563 | 1569 ft | 181 kts | 87° |
| 2026-04-24 23:58 | 25.80362 | -80.24124 | 2178 ft | 193 kts | 89° |
| 2026-04-24 23:59 | 25.80390 | -80.22647 | 2986 ft | 193 kts | 88° |
| 2026-04-24 23:59 | 25.80452 | -80.21101 | 3510 ft | 209 kts | 86° |
| 2026-04-24 23:59 | 25.80564 | -80.19437 | 3985 ft | 229 kts | 80° |
| 2026-04-24 23:59 | 25.81154 | -80.17741 | 4540 ft | 245 kts | 52° |
| 2026-04-25 00:00 | 25.82475 | -80.16503 | 5145 ft | 259 kts | 26° |
| 2026-04-25 00:00 | 25.84224 | -80.15892 | 5855 ft | 269 kts | 6° |
| 2026-04-25 00:00 | 25.86061 | -80.15765 | 6766 ft | 271 kts | 0° |
| 2026-04-25 00:00 | 25.87931 | -80.15742 | 7659 ft | 274 kts | 359° |
| 2026-04-25 00:01 | 25.89833 | -80.15889 | 8524 ft | 276 kts | 348° |
| 2026-04-25 00:01 | 25.91685 | -80.16416 | 9400 ft | 277 kts | 341° |
| 2026-04-25 00:01 | 25.93524 | -80.17088 | 10213 ft | 281 kts | 339° |
| 2026-04-25 00:01 | 25.95418 | -80.17800 | 10761 ft | 295 kts | 340° |
| 2026-04-25 00:02 | 25.97424 | -80.18539 | 11231 ft | 311 kts | 339° |
| 2026-04-25 00:02 | 25.99426 | -80.19530 | 11652 ft | 326 kts | 328° |
| 2026-04-25 00:02 | 26.01279 | -80.21061 | 12095 ft | 340 kts | 318° |
| 2026-04-25 00:02 | 26.03058 | -80.22868 | 12506 ft | 355 kts | 315° |
| 2026-04-25 00:03 | 26.04844 | -80.24769 | 13074 ft | 364 kts | 315° |
| 2026-04-25 00:03 | 26.06702 | -80.26723 | 13844 ft | 368 kts | 316° |
| 2026-04-25 00:03 | 26.08580 | -80.28657 | 14580 ft | 371 kts | 316° |
| 2026-04-25 00:03 | 26.10475 | -80.30571 | 15337 ft | 374 kts | 316° |
| 2026-04-25 00:04 | 26.12385 | -80.32481 | 16081 ft | 376 kts | 316° |
| 2026-04-25 00:04 | 26.14343 | -80.34428 | 16745 ft | 380 kts | 317° |
| 2026-04-25 00:04 | 26.16307 | -80.36378 | 17458 ft | 382 kts | 317° |
| 2026-04-25 00:04 | 26.18292 | -80.38351 | 18114 ft | 385 kts | 317° |
| 2026-04-25 00:05 | 26.20314 | -80.40318 | 18717 ft | 390 kts | 318° |
| 2026-04-25 00:05 | 26.22452 | -80.42184 | 18965 ft | 395 kts | 322° |
| 2026-04-25 00:05 | 26.24768 | -80.43835 | 18960 ft | 394 kts | 328° |
| 2026-04-25 00:05 | 26.27201 | -80.45289 | 18956 ft | 393 kts | 331° |
| 2026-04-25 00:06 | 26.29633 | -80.46613 | 18973 ft | 394 kts | 332° |
| 2026-04-25 00:06 | 26.32128 | -80.47920 | 18959 ft | 394 kts | 333° |
| 2026-04-25 00:06 | 26.34601 | -80.49202 | 18959 ft | 394 kts | 333° |
| 2026-04-25 00:06 | 26.37093 | -80.50497 | 18954 ft | 395 kts | 333° |
| 2026-04-25 00:07 | 26.39587 | -80.51799 | 18953 ft | 394 kts | 333° |
| 2026-04-25 00:07 | 26.42078 | -80.53108 | 18952 ft | 395 kts | 333° |
| 2026-04-25 00:07 | 26.44552 | -80.54414 | 18951 ft | 394 kts | 333° |
| 2026-04-25 00:07 | 26.47044 | -80.55705 | 18950 ft | 394 kts | 334° |
| 2026-04-25 00:08 | 26.49595 | -80.56818 | 18953 ft | 396 kts | 338° |
| 2026-04-25 00:08 | 26.52243 | -80.57777 | 18949 ft | 396 kts | 341° |
| 2026-04-25 00:08 | 26.54885 | -80.58637 | 18950 ft | 396 kts | 342° |
| 2026-04-25 00:08 | 26.57528 | -80.59460 | 18953 ft | 397 kts | 342° |
| 2026-04-25 00:09 | 26.60190 | -80.60281 | 18953 ft | 396 kts | 342° |
| 2026-04-25 00:09 | 26.62862 | -80.61106 | 18955 ft | 396 kts | 342° |
| 2026-04-25 00:09 | 26.65523 | -80.61934 | 18953 ft | 395 kts | 342° |
| 2026-04-25 00:09 | 26.68167 | -80.62762 | 18953 ft | 396 kts | 342° |
| 2026-04-25 00:10 | 26.70827 | -80.63600 | 18953 ft | 396 kts | 342° |
| 2026-04-25 00:10 | 26.73483 | -80.64439 | 18952 ft | 396 kts | 342° |
| 2026-04-25 00:10 | 26.76129 | -80.65279 | 18953 ft | 396 kts | 342° |
| 2026-04-25 00:10 | 26.78792 | -80.66127 | 18952 ft | 396 kts | 342° |
| 2026-04-25 00:11 | 26.81444 | -80.66972 | 18953 ft | 396 kts | 342° |
| 2026-04-25 00:11 | 26.83215 | -80.67537 | 18953 ft | 396 kts | 342° |
| 2026-04-25 00:11 | 26.86730 | -80.68658 | 18951 ft | 395 kts | 341° |
| 2026-04-25 00:11 | 26.89394 | -80.69509 | 18954 ft | 396 kts | 342° |
| 2026-04-25 00:12 | 26.92022 | -80.70357 | 18952 ft | 395 kts | 341° |
| 2026-04-25 00:12 | 26.94649 | -80.71283 | 18953 ft | 395 kts | 340° |
| 2026-04-25 00:12 | 26.97238 | -80.72258 | 18953 ft | 395 kts | 339° |
| 2026-04-25 00:12 | 26.99858 | -80.73270 | 18956 ft | 394 kts | 339° |
| 2026-04-25 00:13 | 27.02434 | -80.74271 | 18956 ft | 395 kts | 339° |
| 2026-04-25 00:13 | 27.05058 | -80.75286 | 18954 ft | 395 kts | 339° |
| 2026-04-25 00:13 | 27.07649 | -80.76283 | 18951 ft | 394 kts | 339° |
| 2026-04-25 00:13 | 27.10247 | -80.77277 | 18948 ft | 395 kts | 339° |
| 2026-04-25 00:14 | 27.12846 | -80.78268 | 18945 ft | 395 kts | 339° |
| 2026-04-25 00:14 | 27.15436 | -80.79252 | 18952 ft | 395 kts | 339° |
| 2026-04-25 00:14 | 27.18046 | -80.80244 | 18944 ft | 395 kts | 339° |
| 2026-04-25 00:14 | 27.20677 | -80.81244 | 18946 ft | 395 kts | 339° |
| 2026-04-25 00:15 | 27.23275 | -80.82230 | 18947 ft | 394 kts | 339° |
| 2026-04-25 00:15 | 27.25870 | -80.83215 | 18951 ft | 394 kts | 339° |
| 2026-04-25 00:15 | 27.28463 | -80.84199 | 18949 ft | 394 kts | 339° |
| 2026-04-25 00:15 | 27.31061 | -80.85186 | 18951 ft | 394 kts | 339° |
| 2026-04-25 00:16 | 27.33668 | -80.86186 | 18950 ft | 394 kts | 339° |
| 2026-04-25 00:16 | 27.36236 | -80.87196 | 18961 ft | 395 kts | 338° |
| 2026-04-25 00:16 | 27.38850 | -80.88237 | 18951 ft | 394 kts | 338° |
| 2026-04-25 00:16 | 27.41440 | -80.89274 | 18958 ft | 395 kts | 338° |
| 2026-04-25 00:17 | 27.44006 | -80.90301 | 18964 ft | 394 kts | 338° |
| 2026-04-25 00:17 | 27.46575 | -80.91330 | 18954 ft | 393 kts | 338° |
| 2026-04-25 00:17 | 27.49184 | -80.92373 | 18949 ft | 394 kts | 338° |
| 2026-04-25 00:17 | 27.51752 | -80.93398 | 18952 ft | 393 kts | 339° |
| 2026-04-25 00:18 | 27.54323 | -80.94424 | 18951 ft | 394 kts | 339° |
| 2026-04-25 00:18 | 27.56918 | -80.95460 | 18953 ft | 393 kts | 339° |
| 2026-04-25 00:18 | 27.59496 | -80.96489 | 18956 ft | 395 kts | 339° |
| 2026-04-25 00:18 | 27.62073 | -80.97519 | 18948 ft | 392 kts | 339° |
| 2026-04-25 00:19 | 27.64659 | -80.98552 | 18955 ft | 394 kts | 339° |
| 2026-04-25 00:19 | 27.67249 | -80.99587 | 18958 ft | 394 kts | 338° |
| 2026-04-25 00:19 | 27.69837 | -81.00622 | 18959 ft | 394 kts | 338° |
| 2026-04-25 00:19 | 27.72408 | -81.01650 | 18966 ft | 393 kts | 338° |
| 2026-04-25 00:20 | 27.75004 | -81.02689 | 18959 ft | 394 kts | 339° |
| 2026-04-25 00:20 | 27.77572 | -81.03718 | 18771 ft | 389 kts | 339° |
| 2026-04-25 00:20 | 27.80112 | -81.04734 | 18348 ft | 382 kts | 339° |
| 2026-04-25 00:20 | 27.82563 | -81.05716 | 17914 ft | 375 kts | 339° |
| 2026-04-25 00:21 | 27.85015 | -81.06698 | 17480 ft | 369 kts | 339° |
| 2026-04-25 00:21 | 27.87429 | -81.07666 | 17048 ft | 363 kts | 339° |
| 2026-04-25 00:21 | 27.89776 | -81.08608 | 16613 ft | 357 kts | 339° |
| 2026-04-25 00:21 | 27.92104 | -81.09550 | 16182 ft | 352 kts | 338° |
| 2026-04-25 00:22 | 27.94374 | -81.10528 | 15734 ft | 347 kts | 337° |
| 2026-04-25 00:22 | 27.96589 | -81.11537 | 15300 ft | 343 kts | 336° |
| 2026-04-25 00:22 | 27.98801 | -81.12568 | 14866 ft | 339 kts | 336° |
| 2026-04-25 00:22 | 28.00966 | -81.13577 | 14426 ft | 335 kts | 336° |
| 2026-04-25 00:23 | 28.03102 | -81.14566 | 13991 ft | 331 kts | 337° |
| 2026-04-25 00:23 | 28.05247 | -81.15507 | 13551 ft | 328 kts | 339° |
| 2026-04-25 00:23 | 28.07419 | -81.16251 | 13120 ft | 326 kts | 345° |
| 2026-04-25 00:23 | 28.09613 | -81.16731 | 12682 ft | 323 kts | 350° |
| 2026-04-25 00:24 | 28.11844 | -81.17046 | 12240 ft | 321 kts | 352° |
| 2026-04-25 00:24 | 28.14075 | -81.17278 | 11773 ft | 319 kts | 354° |
| 2026-04-25 00:24 | 28.16268 | -81.17473 | 11361 ft | 317 kts | 354° |
| 2026-04-25 00:24 | 28.18455 | -81.17669 | 10896 ft | 315 kts | 354° |
| 2026-04-25 00:25 | 28.20631 | -81.17873 | 10458 ft | 313 kts | 353° |
| 2026-04-25 00:25 | 28.22818 | -81.18091 | 9954 ft | 311 kts | 353° |
| 2026-04-25 00:25 | 28.24958 | -81.18309 | 9513 ft | 310 kts | 353° |
| 2026-04-25 00:25 | 28.27091 | -81.18527 | 9073 ft | 308 kts | 353° |
| 2026-04-25 00:26 | 28.29245 | -81.18666 | 8633 ft | 307 kts | 356° |
| 2026-04-25 00:26 | 28.31358 | -81.18706 | 8198 ft | 306 kts | 358° |
| 2026-04-25 00:26 | 28.33484 | -81.18714 | 7818 ft | 303 kts | 358° |
| 2026-04-25 00:26 | 28.35588 | -81.18724 | 7548 ft | 296 kts | 358° |
| 2026-04-25 00:27 | 28.37632 | -81.18745 | 7279 ft | 290 kts | 358° |
| 2026-04-25 00:27 | 28.39613 | -81.18774 | 7014 ft | 284 kts | 357° |
| 2026-04-25 00:27 | 28.41596 | -81.18795 | 6744 ft | 279 kts | 358° |
| 2026-04-25 00:27 | 28.43497 | -81.18809 | 6478 ft | 272 kts | 358° |
| 2026-04-25 00:28 | 28.45365 | -81.18822 | 6215 ft | 265 kts | 358° |
| 2026-04-25 00:28 | 28.47192 | -81.18835 | 5951 ft | 259 kts | 358° |
| 2026-04-25 00:28 | 28.48991 | -81.18849 | 5684 ft | 253 kts | 358° |
| 2026-04-25 00:28 | 28.50726 | -81.18864 | 5421 ft | 247 kts | 358° |
| 2026-04-25 00:29 | 28.52424 | -81.18878 | 5156 ft | 242 kts | 358° |
| 2026-04-25 00:29 | 28.54111 | -81.18893 | 4888 ft | 237 kts | 358° |
| 2026-04-25 00:29 | 28.55735 | -81.18904 | 4627 ft | 233 kts | 359° |
| 2026-04-25 00:29 | 28.57338 | -81.18916 | 4364 ft | 229 kts | 359° |
| 2026-04-25 00:30 | 28.58932 | -81.18929 | 4105 ft | 227 kts | 360° |
| 2026-04-25 00:30 | 28.60483 | -81.18940 | 3990 ft | 218 kts | 360° |
| 2026-04-25 00:30 | 28.61945 | -81.18955 | 3988 ft | 202 kts | 359° |
| 2026-04-25 00:30 | 28.63322 | -81.18987 | 3978 ft | 192 kts | 359° |
| 2026-04-25 00:31 | 28.64662 | -81.19025 | 3985 ft | 191 kts | 359° |
| 2026-04-25 00:31 | 28.65990 | -81.19148 | 3977 ft | 193 kts | 345° |
| 2026-04-25 00:31 | 28.67108 | -81.19960 | 3841 ft | 198 kts | 310° |
| 2026-04-25 00:31 | 28.67618 | -81.21433 | 3429 ft | 204 kts | 273° |
| 2026-04-25 00:32 | 28.67506 | -81.23040 | 3045 ft | 207 kts | 262° |
| 2026-04-25 00:32 | 28.67263 | -81.24609 | 2942 ft | 194 kts | 248° |
| 2026-04-25 00:32 | 28.66469 | -81.25742 | 2968 ft | 182 kts | 210° |
| 2026-04-25 00:32 | 28.65709 | -81.26176 | 2982 ft | 184 kts | 202° |
| 2026-04-25 00:33 | 28.64143 | -81.26978 | 2803 ft | 182 kts | 203° |
| 2026-04-25 00:33 | 28.62999 | -81.27574 | 2755 ft | 182 kts | 202° |
| 2026-04-25 00:33 | 28.61810 | -81.28090 | 2648 ft | 182 kts | 193° |
| 2026-04-25 00:33 | 28.60561 | -81.28310 | 2537 ft | 179 kts | 181° |
| 2026-04-25 00:34 | 28.59332 | -81.28360 | 2488 ft | 177 kts | 178° |
| 2026-04-25 00:34 | 28.58094 | -81.28370 | 2480 ft | 177 kts | 177° |
| 2026-04-25 00:34 | 28.56876 | -81.28369 | 2474 ft | 172 kts | 177° |
| 2026-04-25 00:34 | 28.55721 | -81.28361 | 2373 ft | 164 kts | 176° |
| 2026-04-25 00:35 | 28.54579 | -81.28348 | 2051 ft | 160 kts | 176° |
| 2026-04-25 00:35 | 28.53512 | -81.28342 | 1835 ft | 151 kts | 175° |
| 2026-04-25 00:35 | 28.52441 | -81.28330 | 1637 ft | 152 kts | 175° |
| 2026-04-25 00:35 | 28.51394 | -81.28318 | 1440 ft | 152 kts | 175° |
| 2026-04-25 00:36 | 28.50340 | -81.28312 | 1241 ft | 152 kts | 176° |
| 2026-04-25 00:36 | 28.49287 | -81.28304 | 1043 ft | 151 kts | 175° |
| 2026-04-25 00:36 | 28.48226 | -81.28291 | 848 ft | 153 kts | 175° |
| 2026-04-25 00:36 | 28.47172 | -81.28282 | 692 ft | 150 kts | 176° |
| 2026-04-25 00:37 | 28.46127 | -81.28281 | 512 ft | 146 kts | 175° |
| 2026-04-25 00:37 | 28.45119 | -81.28267 | 286 ft | 143 kts | 175° |
| 2026-04-25 00:37 | 28.44142 | -81.28259 | 106 ft | 138 kts | 176° |
| 2026-04-25 00:37 | 28.43266 | -81.28245 | 87 ft | 103 kts | 180° |
| 2026-04-25 00:38 | 28.42758 | -81.28241 | 87 ft | 45 kts | 179° |
| 2026-04-25 00:38 | 28.42621 | -81.28249 | 87 ft | 1 kts | 198° |
| 2026-04-25 00:38 | 28.42567 | -81.28281 | 87 ft | 12 kts | 219° |
| 2026-04-25 00:38 | 28.42533 | -81.28325 | 87 ft | 6 kts | 239° |
| 2026-04-25 00:39 | 28.42518 | -81.28369 | 86 ft | 7 kts | 251° |
| 2026-04-25 00:39 | 28.42494 | -81.28446 | 85 ft | 11 kts | 251° |
| 2026-04-25 00:39 | 28.42467 | -81.28532 | 84 ft | 11 kts | 250° |
| 2026-04-25 00:39 | 28.42435 | -81.28632 | 84 ft | 15 kts | 250° |
| 2026-04-25 00:40 | 28.42393 | -81.28768 | 84 ft | 19 kts | 250° |
| 2026-04-25 00:40 | 28.42350 | -81.28908 | 84 ft | 18 kts | 250° |
| 2026-04-25 00:40 | 28.42309 | -81.29039 | 84 ft | 18 kts | 252° |
| 2026-04-25 00:40 | 28.42285 | -81.29195 | 84 ft | 19 kts | 269° |
| 2026-04-25 00:41 | 28.42284 | -81.29341 | 86 ft | 17 kts | 269° |
| 2026-04-25 00:41 | 28.42284 | -81.29435 | 87 ft | 0 kts | 270° |
| 2026-04-25 00:41 | 28.42284 | -81.29439 | 87 ft | 3 kts | 270° |
| 2026-04-25 00:42 | 28.42282 | -81.29500 | 87 ft | 12 kts | 268° |
| 2026-04-25 00:42 | 28.42281 | -81.29629 | 87 ft | 15 kts | 270° |
| 2026-04-25 00:42 | 28.42281 | -81.29713 | 88 ft | 8 kts | 271° |
| 2026-04-25 00:42 | 28.42284 | -81.29769 | 89 ft | 6 kts | 288° |
| 2026-04-25 00:43 | 28.42333 | -81.29793 | 89 ft | 8 kts | 1° |
| 2026-04-25 00:43 | 28.42398 | -81.29793 | 88 ft | 10 kts | 360° |
| 2026-04-25 00:43 | 28.42486 | -81.29794 | 87 ft | 13 kts | 358° |
| 2026-04-25 00:43 | 28.42589 | -81.29796 | 87 ft | 15 kts | 359° |
| 2026-04-25 00:44 | 28.42704 | -81.29798 | 88 ft | 17 kts | 359° |
| 2026-04-25 00:44 | 28.42817 | -81.29798 | 90 ft | 14 kts | 0° |
| 2026-04-25 00:44 | 28.42918 | -81.29799 | 90 ft | 15 kts | 360° |
| 2026-04-25 00:44 | 28.43048 | -81.29800 | 90 ft | 21 kts | 0° |
| 2026-04-25 00:45 | 28.43200 | -81.29802 | 90 ft | 21 kts | 360° |
| 2026-04-25 00:45 | 28.43346 | -81.29804 | 90 ft | 19 kts | 359° |
| 2026-04-25 00:45 | 28.43450 | -81.29805 | 90 ft | 13 kts | 359° |
| 2026-04-25 00:45 | 28.43523 | -81.29809 | 90 ft | 8 kts | 344° |
| 2026-04-25 00:46 | 28.43548 | -81.29856 | 90 ft | 7 kts | 264° |
| 2026-04-25 00:46 | 28.43536 | -81.29915 | 90 ft | 9 kts | 250° |
| 2026-04-25 00:46 | 28.43512 | -81.30024 | 90 ft | 3 kts | 257° |
| 2026-04-25 00:47 | 28.43510 | -81.30039 | 89 ft | 1 kts | 257° |
| 2026-04-25 00:47 | 28.43509 | -81.30041 | 89 ft | 0 kts | 257° |